Dunkeld, United Kingdom
Current Conditions -  °F | °C
As of 7:20 PM on Friday 28 Nov 2014 (Local Time) from EGPN Reporting Station
Light Rain Light Rain  
Wind Chill: 50°   Ceiling: 700
Heat Index: 50°   Visibility: 6mi
Dew Point: 50°   Wind: 7mph
Humidity: 100%   Direction: 90°E
Pressure: 29.88"   Gusts: NA
Location:  56.56°N, 3.58°W
Report Text: EGPN 281920Z 09006KT 9000 -RADZ BKN007 BKN011 10/10 Q1012
Loading
Personal Weather Stations






























Interactive Weather Map New forecast layout! Learn more

10-Day Weather Forecast

Advertisements
Track Severe Weather on mobile